createdAt,value
2022-10-25T00:00:45.261Z,7.40
2022-10-25T00:01:45.994Z,7.30
2022-10-25T00:02:46.760Z,7.20
2022-10-25T00:03:47.410Z,7.70
2022-10-25T00:04:48.131Z,6.90
2022-10-25T00:05:48.737Z,7.00
2022-10-25T00:06:49.329Z,7.00
2022-10-25T00:07:49.945Z,7.20
2022-10-25T00:08:50.530Z,6.90
2022-10-25T00:09:51.223Z,6.80
2022-10-25T00:10:51.822Z,6.50
2022-10-25T00:11:52.424Z,6.80
2022-10-25T00:12:53.016Z,6.60
2022-10-25T00:13:53.603Z,7.10
2022-10-25T00:14:54.248Z,6.80
2022-10-25T00:15:54.837Z,6.90
2022-10-25T00:16:55.431Z,6.80
2022-10-25T00:17:56.042Z,6.80
2022-10-25T00:18:56.637Z,6.80
2022-10-25T00:19:57.361Z,6.80
2022-10-25T00:20:57.981Z,6.80
2022-10-25T00:21:58.593Z,6.80
2022-10-25T00:22:59.177Z,6.80
2022-10-25T00:23:59.776Z,6.40
2022-10-25T00:25:00.484Z,6.30
2022-10-25T00:26:01.072Z,6.60
2022-10-25T00:27:01.665Z,6.90
2022-10-25T00:28:02.262Z,6.30
2022-10-25T00:29:02.855Z,6.30
2022-10-25T00:30:03.591Z,6.50
2022-10-25T00:31:04.176Z,6.90
2022-10-25T00:32:04.759Z,6.90
2022-10-25T00:33:05.395Z,6.40
2022-10-25T00:34:05.975Z,6.20
2022-10-25T00:35:06.703Z,6.50
2022-10-25T00:36:07.300Z,6.80
2022-10-25T00:37:07.881Z,7.10
2022-10-25T00:38:08.481Z,6.80
2022-10-25T00:39:09.099Z,6.80
2022-10-25T00:40:09.737Z,6.60
2022-10-25T00:41:10.324Z,6.60
2022-10-25T00:42:10.907Z,6.60
2022-10-25T00:43:11.493Z,6.40
2022-10-25T00:44:12.096Z,6.90
2022-10-25T00:45:12.727Z,6.50
2022-10-25T00:46:13.311Z,6.40
2022-10-25T00:47:13.902Z,6.60
2022-10-25T00:48:14.516Z,6.30
2022-10-25T00:49:15.106Z,6.90
2022-10-25T00:50:15.812Z,6.80
2022-10-25T00:51:16.405Z,6.50
2022-10-25T00:52:16.998Z,6.90
2022-10-25T00:53:17.584Z,7.00
2022-10-25T00:54:18.196Z,6.80
2022-10-25T00:55:18.871Z,6.60
2022-10-25T00:56:19.513Z,6.50
2022-10-25T00:57:20.103Z,6.70
2022-10-25T00:58:20.686Z,6.50
2022-10-25T00:59:21.288Z,6.60
2022-10-25T01:00:21.988Z,7.60
2022-10-25T01:01:22.708Z,7.40
2022-10-25T01:02:23.418Z,6.80
2022-10-25T01:03:24.117Z,7.40
2022-10-25T01:04:24.711Z,7.10
2022-10-25T01:05:25.485Z,6.80
2022-10-25T01:06:26.069Z,7.10
2022-10-25T01:07:26.665Z,7.30
2022-10-25T01:08:27.259Z,7.40
2022-10-25T01:09:27.850Z,7.20
2022-10-25T01:10:28.528Z,7.20
2022-10-25T01:11:29.129Z,7.20
2022-10-25T01:12:29.721Z,7.40
2022-10-25T01:13:30.315Z,7.10
2022-10-25T01:14:30.908Z,7.00
2022-10-25T01:15:31.595Z,7.40
2022-10-25T01:16:32.183Z,7.40
2022-10-25T01:17:32.776Z,7.60
2022-10-25T01:18:33.382Z,7.20
2022-10-25T01:20:33.590Z,7.10
2022-10-25T01:21:35.180Z,7.50
2022-10-25T01:22:35.786Z,6.60
2022-10-25T01:23:36.379Z,7.20
2022-10-25T01:24:36.970Z,6.50
2022-10-25T01:25:37.694Z,6.80
2022-10-25T01:26:38.319Z,6.10
2022-10-25T01:27:38.905Z,6.50
2022-10-25T01:28:39.512Z,6.30
2022-10-25T01:29:40.106Z,6.10
2022-10-25T01:30:40.788Z,6.40
2022-10-25T01:31:41.388Z,6.30
2022-10-25T01:32:41.979Z,6.30
2022-10-25T01:33:42.596Z,6.40
2022-10-25T01:34:43.177Z,6.20
2022-10-25T01:35:43.848Z,6.70
2022-10-25T01:36:44.440Z,5.90
2022-10-25T01:37:45.353Z,6.40
2022-10-25T01:38:45.554Z,5.90
2022-10-25T01:39:46.153Z,6.10
2022-10-25T01:40:46.791Z,6.40
2022-10-25T01:41:47.407Z,6.50
2022-10-25T01:42:48.008Z,5.80
2022-10-25T01:43:48.598Z,6.10
2022-10-25T01:44:49.187Z,6.20
2022-10-25T01:45:49.977Z,6.10
2022-10-25T01:46:50.570Z,5.90
2022-10-25T01:47:51.161Z,6.10
2022-10-25T01:48:51.783Z,6.10
2022-10-25T01:49:52.371Z,6.10
2022-10-25T01:50:53.072Z,6.40
2022-10-25T01:51:53.667Z,6.30
2022-10-25T01:53:53.839Z,6.10
2022-10-25T01:54:55.435Z,5.80
2022-10-25T01:55:56.087Z,6.50
2022-10-25T01:56:56.682Z,6.50
2022-10-25T01:57:57.267Z,6.20
2022-10-25T01:58:57.847Z,5.50
2022-10-25T01:59:58.446Z,5.90
2022-10-25T02:00:59.286Z,5.70
2022-10-25T02:01:59.952Z,6.00
2022-10-25T02:03:00.567Z,6.20
2022-10-25T02:04:01.195Z,5.80
2022-10-25T02:05:01.789Z,5.60
2022-10-25T02:06:02.470Z,5.70
2022-10-25T02:07:03.077Z,6.20
2022-10-25T02:08:03.685Z,6.30
2022-10-25T02:09:04.283Z,5.90
2022-10-25T02:11:04.581Z,5.90
2022-10-25T02:12:06.186Z,6.10
2022-10-25T02:13:06.780Z,6.10
2022-10-25T02:14:07.374Z,5.90
2022-10-25T02:15:07.977Z,5.60
2022-10-25T02:16:08.764Z,5.40
2022-10-25T02:17:09.377Z,5.70
2022-10-25T02:18:09.966Z,5.90
2022-10-25T02:19:10.589Z,5.70
2022-10-25T02:20:11.182Z,5.50
2022-10-25T02:21:11.948Z,6.30
2022-10-25T02:22:12.543Z,6.20
2022-10-25T02:23:13.151Z,6.30
2022-10-25T02:24:13.743Z,5.80
2022-10-25T02:25:14.337Z,5.70
2022-10-25T02:26:15.143Z,5.90
2022-10-25T02:27:15.743Z,5.50
2022-10-25T02:28:16.329Z,5.70
2022-10-25T02:29:16.927Z,5.70
2022-10-25T02:30:17.523Z,5.90
2022-10-25T02:31:18.274Z,5.90
2022-10-25T02:32:18.874Z,6.00
2022-10-25T02:33:19.474Z,6.20
2022-10-25T02:34:20.091Z,5.80
2022-10-25T02:35:20.680Z,5.90
2022-10-25T02:36:21.351Z,5.70
2022-10-25T02:37:21.942Z,5.70
2022-10-25T02:38:22.547Z,6.00
2022-10-25T02:39:26.398Z,6.00
2022-10-25T02:40:24.065Z,6.00
2022-10-25T02:41:24.717Z,6.00
2022-10-25T02:42:25.326Z,5.60
2022-10-25T02:43:25.992Z,5.90
2022-10-25T02:44:26.639Z,6.10
2022-10-25T02:45:27.236Z,5.80
2022-10-25T02:46:27.883Z,6.00
2022-10-25T02:47:28.479Z,5.80
2022-10-25T02:48:29.073Z,6.00
2022-10-25T02:49:29.707Z,6.10
2022-10-25T02:50:30.299Z,6.00
2022-10-25T02:51:31.115Z,6.00
2022-10-25T02:52:31.700Z,6.00
2022-10-25T02:53:32.289Z,5.80
2022-10-25T02:54:32.883Z,6.20
2022-10-25T02:55:33.485Z,6.30
2022-10-25T02:56:34.136Z,6.30
2022-10-25T02:57:34.731Z,6.20
2022-10-25T02:58:35.327Z,6.30
2022-10-25T02:59:35.930Z,5.90
2022-10-25T03:00:36.612Z,6.40
2022-10-25T03:01:37.326Z,6.30
2022-10-25T03:02:37.954Z,5.60
2022-10-25T03:03:38.543Z,5.70
2022-10-25T03:04:39.169Z,5.60
2022-10-25T03:05:39.768Z,5.70
2022-10-25T03:06:40.487Z,5.90
2022-10-25T03:07:41.086Z,5.40
2022-10-25T03:08:41.681Z,5.60
2022-10-25T03:09:42.269Z,5.50
2022-10-25T03:10:42.857Z,6.20
2022-10-25T03:11:43.600Z,5.50
2022-10-25T03:12:44.564Z,6.00
2022-10-25T03:13:44.807Z,5.50
2022-10-25T03:14:45.402Z,5.60
2022-10-25T03:15:45.984Z,6.00
2022-10-25T03:17:46.798Z,5.70
2022-10-25T03:18:48.147Z,5.60
2022-10-25T03:19:48.768Z,5.40
2022-10-25T03:20:49.353Z,6.10
2022-10-25T03:21:50.671Z,5.80
2022-10-25T03:22:50.757Z,5.80
2022-10-25T03:23:51.348Z,5.70
2022-10-25T03:24:51.937Z,5.70
2022-10-25T03:25:54.290Z,5.90
2022-10-25T03:26:53.289Z,5.70
2022-10-25T03:27:53.875Z,5.60
2022-10-25T03:28:54.473Z,5.60
2022-10-25T03:29:55.075Z,5.80
2022-10-25T03:30:55.665Z,5.70
2022-10-25T03:31:56.340Z,6.20
2022-10-25T03:32:56.939Z,5.60
2022-10-25T03:33:57.529Z,5.60
2022-10-25T03:34:58.160Z,5.80
2022-10-25T03:35:58.748Z,5.70
2022-10-25T03:36:59.488Z,6.10
2022-10-25T03:38:00.089Z,6.10
2022-10-25T03:39:00.697Z,6.10
2022-10-25T03:40:01.299Z,5.60
2022-10-25T03:41:01.909Z,5.90
2022-10-25T03:42:02.601Z,5.90
2022-10-25T03:43:03.210Z,5.80
2022-10-25T03:44:03.795Z,5.80
2022-10-25T03:45:04.395Z,5.90
2022-10-25T03:46:04.993Z,6.50
2022-10-25T03:47:05.643Z,5.90
2022-10-25T03:48:06.240Z,5.70
2022-10-25T03:49:06.829Z,5.70
2022-10-25T03:50:07.443Z,6.00
2022-10-25T03:51:08.040Z,5.90
2022-10-25T03:52:08.775Z,6.00
2022-10-25T03:54:08.966Z,6.00
2022-10-25T03:55:10.589Z,6.00
2022-10-25T03:56:11.173Z,6.50
2022-10-25T03:57:11.807Z,5.90
2022-10-25T03:58:12.393Z,6.10
2022-10-25T03:59:12.989Z,5.70
2022-10-25T04:00:13.580Z,6.00
2022-10-25T04:01:14.370Z,5.80
2022-10-25T04:02:15.205Z,5.60
2022-10-25T04:03:15.823Z,6.00
2022-10-25T04:04:16.443Z,5.50
2022-10-25T04:05:17.067Z,5.70
2022-10-25T04:06:17.663Z,5.90
2022-10-25T04:07:18.338Z,6.00
2022-10-25T04:08:18.951Z,6.30
2022-10-25T04:09:19.539Z,5.80
2022-10-25T04:10:20.135Z,5.80
2022-10-25T04:11:20.737Z,6.40
2022-10-25T04:12:21.533Z,5.80
2022-10-25T04:13:22.078Z,5.50
2022-10-25T04:14:22.678Z,5.70
2022-10-25T04:15:23.270Z,5.70
2022-10-25T04:16:23.862Z,6.10
2022-10-25T04:17:24.501Z,5.90
2022-10-25T04:18:25.099Z,5.30
2022-10-25T04:19:25.651Z,5.60
2022-10-25T04:20:26.217Z,5.90
2022-10-25T04:21:26.750Z,5.80
2022-10-25T04:22:27.369Z,5.60
2022-10-25T04:23:27.967Z,5.40
2022-10-25T04:24:28.521Z,5.20
2022-10-25T04:25:29.062Z,5.50
2022-10-25T04:26:29.594Z,6.10
2022-10-25T04:27:30.255Z,5.60
2022-10-25T04:28:30.796Z,5.50
2022-10-25T04:29:31.338Z,5.30
2022-10-25T04:30:35.163Z,5.60
2022-10-25T04:31:32.753Z,5.50
2022-10-25T04:32:33.357Z,5.70
2022-10-25T04:33:34.756Z,5.90
2022-10-25T04:34:34.804Z,5.70
2022-10-25T04:35:35.453Z,5.80
2022-10-25T04:36:36.234Z,5.70
2022-10-25T04:37:36.838Z,5.90
2022-10-25T04:38:37.380Z,5.60
2022-10-25T04:39:37.939Z,5.50
2022-10-25T04:40:38.493Z,5.40
2022-10-25T04:42:01.240Z,4.80
2022-10-25T04:42:40.894Z,5.70
2022-10-25T04:43:40.833Z,5.70
2022-10-25T04:44:41.550Z,5.50
2022-10-25T04:45:42.418Z,5.50
2022-10-25T04:46:46.372Z,5.70
2022-10-25T04:47:43.913Z,5.30
2022-10-25T04:48:44.462Z,5.40
2022-10-25T04:49:45.039Z,5.40
2022-10-25T04:50:45.888Z,5.70
2022-10-25T04:51:46.464Z,5.20
2022-10-25T04:52:47.648Z,5.40
2022-10-25T04:53:47.899Z,5.60
2022-10-25T04:54:48.440Z,5.40
2022-10-25T04:55:49.747Z,5.40
2022-10-25T04:56:49.797Z,5.10
2022-10-25T04:57:50.424Z,5.50
2022-10-25T04:58:51.008Z,5.70
2022-10-25T04:59:51.540Z,5.40
2022-10-25T05:00:52.083Z,5.80
2022-10-25T05:01:52.675Z,6.20
2022-10-25T05:03:02.786Z,5.60
2022-10-25T05:03:54.365Z,5.70
2022-10-25T05:04:54.920Z,5.40
2022-10-25T05:05:58.236Z,5.40
2022-10-25T05:06:56.281Z,5.70
2022-10-25T05:07:56.839Z,5.70
2022-10-25T05:08:57.469Z,5.30
2022-10-25T05:09:58.347Z,5.70
2022-10-25T05:10:58.969Z,5.60
2022-10-25T05:12:00.261Z,5.50
2022-10-25T05:13:00.592Z,5.70
2022-10-25T05:14:04.032Z,5.20
2022-10-25T05:15:02.967Z,5.20
2022-10-25T05:16:19.426Z,5.30
2022-10-25T05:17:15.364Z,5.50
2022-10-25T05:18:04.436Z,5.40
2022-10-25T05:19:05.179Z,5.40
2022-10-25T05:20:05.747Z,5.00
2022-10-25T05:21:19.384Z,5.30
2022-10-25T05:22:07.709Z,5.30
2022-10-25T05:23:13.765Z,5.20
2022-10-25T05:24:08.605Z,5.90
2022-10-25T05:25:10.134Z,5.60
2022-10-25T05:26:10.111Z,5.40
2022-10-25T05:27:10.646Z,5.00
2022-10-25T05:28:11.155Z,5.20
2022-10-25T05:29:11.735Z,5.30
2022-10-25T05:30:12.243Z,5.40
2022-10-25T05:31:12.972Z,5.50
2022-10-25T05:32:13.797Z,5.40
2022-10-25T05:33:14.463Z,5.20
2022-10-25T05:34:19.866Z,5.20
2022-10-25T05:35:19.620Z,5.20
2022-10-25T05:36:25.950Z,5.20
2022-10-25T05:37:17.694Z,5.40
2022-10-25T05:38:18.205Z,5.20
2022-10-25T05:39:18.712Z,5.00
2022-10-25T05:40:19.257Z,5.30
2022-10-25T05:41:19.803Z,5.20
2022-10-25T05:42:20.305Z,5.20
2022-10-25T05:43:20.991Z,5.10
2022-10-25T05:44:21.491Z,5.30
2022-10-25T05:45:30.631Z,5.30
2022-10-25T05:46:22.668Z,5.20
2022-10-25T05:47:26.004Z,4.90
2022-10-25T05:48:23.701Z,4.90
2022-10-25T05:49:25.147Z,5.00
2022-10-25T05:50:24.878Z,4.80
2022-10-25T05:51:33.202Z,5.20
2022-10-25T05:52:26.313Z,4.90
2022-10-25T05:53:26.818Z,4.90
2022-10-25T05:54:27.314Z,4.90
2022-10-25T05:55:27.818Z,5.00
2022-10-25T05:56:28.356Z,4.80
2022-10-25T05:57:36.896Z,5.10
2022-10-25T05:58:36.088Z,4.90
2022-10-25T05:59:30.629Z,5.20
2022-10-25T06:00:40.779Z,4.80
2022-10-25T06:01:32.369Z,4.50
2022-10-25T06:02:33.079Z,5.00
2022-10-25T06:05:40.549Z,5.60
2022-10-25T06:06:43.099Z,5.00
2022-10-25T06:08:01.394Z,5.10
2022-10-25T06:12:44.288Z,6.10
2022-10-25T06:13:46.298Z,6.80
2022-10-25T06:14:50.225Z,6.60
2022-10-25T06:16:09.330Z,6.90
2022-10-25T06:16:48.329Z,6.70
2022-10-25T06:17:51.226Z,7.40
2022-10-25T06:18:50.140Z,7.60
2022-10-25T06:19:50.237Z,7.50
2022-10-25T06:20:50.800Z,7.80
2022-10-25T06:21:51.318Z,7.90
2022-10-25T06:22:51.852Z,8.90
2022-10-25T06:23:52.438Z,8.10
2022-10-25T06:24:52.948Z,8.40
2022-10-25T06:25:53.446Z,8.10
2022-10-25T06:26:53.941Z,7.90
2022-10-25T06:27:54.464Z,8.70
2022-10-25T06:28:54.973Z,7.70
2022-10-25T06:29:55.474Z,7.80
2022-10-25T06:30:55.978Z,7.70
2022-10-25T06:31:56.654Z,7.90
2022-10-25T06:32:58.990Z,6.40
2022-10-25T06:33:57.795Z,6.80
2022-10-25T06:35:04.197Z,6.50
2022-10-25T06:35:58.835Z,6.90
2022-10-25T06:36:59.348Z,7.30
2022-10-25T06:37:59.885Z,6.80
2022-10-25T06:39:05.771Z,6.70
2022-10-25T06:40:01.296Z,7.20
2022-10-25T06:41:01.819Z,6.90
2022-10-25T06:42:04.316Z,7.20
2022-10-25T06:43:13.397Z,6.70
2022-10-25T06:44:06.387Z,6.80
2022-10-25T06:45:04.607Z,7.30
2022-10-25T06:46:05.118Z,6.50
2022-10-25T06:47:16.811Z,7.10
2022-10-25T06:48:06.481Z,7.10
2022-10-25T06:49:07.312Z,7.50
2022-10-25T06:51:07.359Z,8.50
2022-10-25T06:52:08.862Z,9.00
2022-10-25T06:53:09.458Z,9.10
2022-10-25T06:54:09.988Z,9.70
2022-10-25T06:55:10.578Z,10.40
2022-10-25T06:56:14.462Z,9.90
2022-10-25T06:57:11.785Z,11.00
2022-10-25T06:58:12.318Z,10.40
2022-10-25T06:59:12.969Z,11.40
2022-10-25T07:00:13.465Z,11.00
2022-10-25T07:01:14.152Z,10.40
2022-10-25T07:02:18.142Z,11.70
2022-10-25T07:03:15.754Z,10.40
2022-10-25T07:04:16.294Z,10.50
2022-10-25T07:05:16.843Z,11.00
2022-10-25T07:06:17.488Z,11.40
2022-10-25T07:07:18.089Z,11.80
2022-10-25T07:08:28.261Z,11.80
2022-10-25T07:09:34.641Z,11.70
2022-10-25T07:10:20.273Z,11.90
2022-10-25T07:11:20.819Z,12.40
2022-10-25T07:12:21.356Z,12.30
2022-10-25T07:13:22.072Z,12.60
2022-10-25T07:14:22.650Z,13.90
2022-10-25T07:15:35.451Z,14.40
2022-10-25T07:16:24.035Z,14.80
2022-10-25T07:17:24.548Z,15.80
2022-10-25T07:18:25.213Z,18.00
2022-10-25T07:19:25.722Z,18.90
2022-10-25T07:20:26.329Z,19.10
2022-10-25T07:21:26.883Z,20.90
2022-10-25T07:22:28.475Z,23.20
2022-10-25T07:23:28.512Z,22.70
2022-10-25T07:24:29.028Z,22.40
2022-10-25T07:25:29.586Z,22.20
2022-10-25T07:26:30.955Z,22.40
2022-10-25T07:27:30.728Z,23.20
2022-10-25T07:28:31.262Z,21.90
2022-10-25T07:29:31.764Z,22.40
2022-10-25T07:30:32.272Z,21.90
2022-10-25T07:31:32.777Z,21.60
2022-10-25T07:32:33.296Z,23.20
2022-10-25T07:33:33.853Z,23.40
2022-10-25T07:34:34.360Z,25.00
2022-10-25T07:35:41.983Z,24.60
2022-10-25T07:36:51.187Z,23.40
2022-10-25T07:37:36.629Z,24.10
2022-10-25T07:38:45.836Z,24.00
2022-10-25T07:39:37.821Z,25.30
2022-10-25T07:40:38.369Z,25.80
2022-10-25T07:41:38.864Z,24.10
2022-10-25T07:42:39.425Z,23.60
2022-10-25T07:43:39.971Z,21.50
2022-10-25T07:44:40.515Z,21.30
2022-10-25T07:47:29.902Z,20.10
2022-10-25T07:48:32.074Z,20.20
2022-10-25T07:49:33.762Z,21.10
2022-10-25T07:50:33.866Z,17.90
2022-10-25T07:51:40.877Z,18.30
2022-10-25T07:52:34.254Z,17.30
2022-10-25T07:53:39.768Z,15.80
2022-10-25T07:54:35.946Z,14.40
2022-10-25T07:55:36.678Z,13.40
2022-10-25T07:56:37.253Z,12.50
2022-10-25T07:57:37.751Z,12.00
2022-10-25T07:58:38.259Z,13.00
2022-10-25T07:59:38.798Z,13.30
2022-10-25T08:00:39.309Z,13.30
2022-10-25T08:01:40.932Z,13.30
2022-10-25T08:02:43.446Z,13.40
2022-10-25T08:03:41.197Z,14.50
2022-10-25T08:04:41.758Z,13.50
2022-10-25T08:05:42.295Z,15.00
2022-10-25T08:06:43.073Z,15.70
2022-10-25T08:07:43.659Z,15.80
2022-10-25T08:08:44.183Z,16.20
2022-10-25T08:09:45.061Z,16.80
2022-10-25T08:22:23.526Z,17.80
2022-10-25T08:23:24.544Z,17.20
2022-10-25T08:24:25.562Z,16.20
2022-10-25T08:25:33.883Z,15.10
2022-10-25T08:26:26.521Z,15.80
2022-10-25T08:27:27.116Z,15.60
2022-10-25T08:28:27.733Z,14.90
2022-10-25T08:29:28.246Z,14.70
2022-10-25T08:30:28.753Z,12.90
2022-10-25T08:31:29.311Z,12.10
2022-10-25T08:32:30.949Z,12.30
2022-10-25T08:33:30.459Z,13.10
2022-10-25T08:34:33.164Z,13.20
2022-10-25T08:35:31.836Z,12.80
2022-10-25T08:36:32.456Z,12.90
2022-10-25T08:37:33.003Z,12.90
2022-10-25T08:38:33.506Z,12.20
2022-10-25T08:39:34.058Z,12.20
2022-10-25T08:40:34.752Z,12.00
2022-10-25T08:41:36.340Z,13.50
2022-10-25T08:42:35.832Z,13.10
2022-10-25T08:43:36.331Z,13.70
2022-10-25T08:44:44.591Z,13.00
2022-10-25T08:45:37.856Z,13.30
2022-10-25T08:46:45.693Z,16.60
2022-10-25T08:47:39.376Z,16.80
2022-10-25T08:48:39.879Z,16.70
2022-10-25T08:49:40.539Z,18.80
2022-10-25T08:50:40.907Z,17.90
2022-10-25T08:51:41.558Z,19.80
2022-10-25T08:52:42.123Z,18.80
2022-10-25T08:53:42.690Z,22.00
2022-10-25T08:54:43.215Z,20.00
2022-10-25T08:55:58.740Z,20.80
2022-10-25T08:57:14.051Z,17.90
2022-10-25T08:57:45.849Z,19.90
2022-10-25T08:58:46.078Z,18.60
2022-10-25T08:59:46.586Z,18.70
2022-10-25T09:00:47.092Z,16.10
2022-10-25T09:01:47.710Z,16.10
2022-10-25T09:02:48.382Z,15.20
2022-10-25T09:03:48.880Z,15.80
2022-10-25T09:04:49.425Z,14.50
2022-10-25T09:05:49.933Z,14.60
2022-10-25T09:06:50.506Z,14.20
2022-10-25T09:07:51.057Z,14.70
2022-10-25T09:08:52.586Z,16.00
2022-10-25T09:09:52.516Z,18.00
2022-10-25T09:10:52.842Z,19.80
2022-10-25T09:11:53.424Z,20.50
2022-10-25T09:12:54.075Z,22.00
2022-10-25T09:13:54.765Z,22.40
2022-10-25T09:14:55.322Z,25.00
2022-10-25T09:15:55.948Z,25.30
2022-10-25T09:16:56.444Z,24.40
2022-10-25T09:17:57.031Z,24.00
2022-10-25T09:19:02.153Z,25.40
2022-10-25T09:19:58.486Z,25.90
2022-10-25T09:20:59.278Z,24.50
2022-10-25T09:22:00.797Z,17.60
2022-10-25T09:23:01.446Z,20.00
2022-10-25T09:24:01.169Z,20.50
2022-10-25T09:25:01.751Z,18.30
2022-10-25T09:26:09.856Z,21.90
2022-10-25T09:27:03.150Z,23.90
2022-10-25T09:28:05.494Z,22.60
2022-10-25T09:29:10.396Z,23.50
2022-10-25T09:32:19.684Z,22.80
2022-10-25T09:33:18.741Z,27.40
2022-10-25T09:34:20.694Z,26.00
2022-10-25T09:35:20.192Z,26.90
2022-10-25T09:36:20.714Z,27.40
2022-10-25T09:37:21.362Z,30.40
2022-10-25T09:38:45.521Z,30.40
2022-10-25T09:39:22.569Z,32.40
2022-10-25T09:40:23.115Z,33.20
2022-10-25T09:41:23.640Z,29.10
2022-10-25T09:42:30.178Z,27.90
2022-10-25T09:43:25.478Z,28.40
2022-10-25T09:44:25.978Z,29.90
2022-10-25T09:45:26.558Z,33.60
2022-10-25T09:46:27.360Z,31.60
2022-10-25T09:47:27.796Z,31.80
2022-10-25T09:48:28.330Z,31.60
2022-10-25T09:49:28.827Z,31.50
2022-10-25T09:50:29.333Z,31.50
2022-10-25T09:51:29.834Z,32.40
2022-10-25T09:52:30.675Z,33.70
2022-10-25T09:53:31.002Z,31.10
2022-10-25T09:54:32.237Z,30.50
2022-10-25T09:55:32.205Z,30.90
2022-10-25T09:56:36.461Z,33.60
2022-10-25T09:57:33.599Z,31.80
2022-10-25T09:58:34.140Z,29.30
2022-10-25T09:59:34.648Z,29.00
2022-10-25T10:00:35.198Z,29.00
2022-10-25T10:01:35.860Z,29.70
2022-10-25T10:02:36.575Z,29.10
2022-10-25T10:03:37.224Z,29.60
2022-10-25T10:04:37.890Z,28.90
2022-10-25T10:05:38.397Z,27.60
2022-10-25T10:06:38.905Z,29.50
2022-10-25T10:07:39.415Z,32.10
2022-10-25T10:08:40.016Z,28.50
2022-10-25T10:09:44.933Z,28.10
2022-10-25T10:10:41.379Z,27.50
2022-10-25T10:11:41.877Z,26.30
2022-10-25T10:12:42.376Z,26.60
2022-10-25T10:13:42.931Z,25.20
2022-10-25T10:14:43.911Z,26.50
2022-10-25T10:15:43.937Z,24.70
2022-10-25T10:16:44.430Z,26.20
2022-10-25T10:17:45.214Z,25.80
2022-10-25T10:18:45.939Z,24.50
2022-10-25T10:19:46.461Z,26.80
2022-10-25T10:20:46.978Z,25.50
2022-10-25T10:21:47.481Z,26.50
2022-10-25T10:23:52.979Z,24.10
2022-10-25T10:24:54.374Z,21.80
2022-10-25T10:25:51.352Z,22.50
2022-10-25T10:26:51.994Z,21.90
2022-10-25T10:27:52.013Z,20.80
2022-10-25T10:28:52.633Z,19.80
2022-10-25T10:29:53.227Z,18.50
2022-10-25T10:30:53.732Z,18.90
2022-10-25T10:31:54.228Z,22.50
2022-10-25T10:32:57.129Z,31.10
2022-10-25T10:33:55.635Z,28.50
2022-10-25T10:34:56.137Z,29.60
2022-10-25T10:35:56.641Z,28.80
2022-10-25T10:36:57.148Z,27.70
2022-10-25T10:37:57.656Z,28.00
2022-10-25T10:38:58.223Z,27.60
2022-10-25T10:39:58.750Z,27.30
2022-10-25T10:40:59.257Z,27.60
2022-10-25T10:41:59.791Z,27.20
2022-10-25T10:43:00.292Z,26.90
2022-10-25T10:44:00.915Z,26.90
2022-10-25T10:45:01.420Z,27.80
2022-10-25T10:46:01.925Z,27.20
2022-10-25T10:47:02.429Z,27.90
2022-10-25T10:48:02.933Z,29.30
2022-10-25T10:49:03.534Z,26.70
2022-10-25T10:50:04.079Z,28.30
2022-10-25T10:51:06.604Z,29.20
2022-10-25T10:52:05.496Z,27.60
2022-10-25T10:53:06.007Z,26.70
2022-10-25T10:54:06.872Z,29.00
2022-10-25T10:55:07.410Z,29.00
2022-10-25T10:56:07.914Z,29.30
2022-10-25T10:57:08.438Z,30.50
2022-10-25T10:58:08.950Z,31.40
2022-10-25T10:59:09.479Z,30.70
2022-10-25T11:00:10.133Z,30.40
2022-10-25T11:01:11.341Z,32.70
2022-10-25T11:02:11.759Z,31.40
2022-10-25T11:03:12.421Z,33.00
2022-10-25T11:04:12.959Z,33.00
2022-10-25T11:05:13.459Z,34.80
2022-10-25T11:06:13.961Z,35.00
2022-10-25T11:07:14.457Z,36.10
2022-10-25T11:08:14.971Z,36.70
2022-10-25T11:09:15.570Z,36.50
2022-10-25T11:10:16.104Z,34.70
2022-10-25T11:11:16.610Z,34.40
2022-10-25T11:12:17.116Z,36.30
2022-10-25T11:13:17.930Z,36.30
2022-10-25T11:14:18.487Z,37.80
2022-10-25T11:15:18.988Z,37.70
2022-10-25T11:16:21.942Z,27.50
2022-10-25T11:17:20.350Z,26.60
2022-10-25T11:18:20.847Z,26.70
2022-10-25T11:19:21.381Z,27.70
2022-10-25T11:20:21.891Z,31.50
2022-10-25T11:21:22.390Z,29.50
2022-10-25T11:22:22.899Z,31.10
2022-10-25T11:23:23.390Z,33.90
2022-10-25T11:24:23.982Z,33.00
2022-10-25T11:25:24.619Z,33.70
2022-10-25T11:26:25.127Z,38.30
2022-10-25T11:27:25.630Z,39.40
2022-10-25T11:28:26.153Z,32.30
2022-10-25T11:29:26.682Z,35.80
2022-10-25T11:30:27.226Z,37.90
2022-10-25T11:31:27.722Z,39.90
2022-10-25T11:32:28.288Z,42.80
2022-10-25T11:33:28.812Z,40.40
2022-10-25T11:34:29.350Z,40.50
2022-10-25T11:35:29.853Z,38.00
2022-10-25T11:36:30.354Z,39.50
2022-10-25T11:37:30.851Z,41.30
2022-10-25T11:38:31.348Z,41.50
2022-10-25T11:39:31.969Z,41.80
2022-10-25T11:40:32.605Z,41.40
2022-10-25T11:41:33.115Z,41.70
2022-10-25T11:42:33.615Z,43.20
2022-10-25T11:43:34.117Z,42.30
2022-10-25T11:44:34.654Z,42.10
2022-10-25T11:45:35.159Z,42.50
2022-10-25T11:46:35.656Z,42.80
2022-10-25T11:47:38.107Z,42.70
2022-10-25T11:48:37.044Z,42.80
2022-10-25T11:49:37.594Z,43.40
2022-10-25T11:50:38.091Z,41.30
2022-10-25T11:51:38.601Z,40.00
2022-10-25T11:52:39.109Z,42.80
2022-10-25T11:53:39.613Z,40.10
2022-10-25T11:54:40.142Z,35.30
2022-10-25T11:55:40.762Z,36.50
2022-10-25T11:56:41.257Z,39.00
2022-10-25T11:57:41.779Z,29.20
2022-10-25T11:58:42.280Z,30.30
2022-10-25T11:59:42.815Z,34.20
2022-10-25T12:00:43.314Z,30.50
2022-10-25T12:01:43.865Z,28.00
2022-10-25T12:02:44.550Z,29.50
2022-10-25T12:03:45.189Z,29.30
2022-10-25T12:04:45.742Z,28.90
2022-10-25T12:05:46.249Z,29.80
2022-10-25T12:06:46.749Z,29.40
2022-10-25T12:07:47.263Z,30.00
2022-10-25T12:08:47.769Z,29.20
2022-10-25T12:09:48.352Z,33.60
2022-10-25T12:10:48.987Z,29.80
2022-10-25T12:11:49.482Z,32.90
2022-10-25T12:12:50.410Z,33.20
2022-10-25T12:13:50.669Z,31.70
2022-10-25T12:14:51.200Z,30.60
2022-10-25T12:15:51.701Z,32.00
2022-10-25T12:16:52.201Z,34.50
2022-10-25T12:17:52.712Z,34.50
2022-10-25T12:18:53.215Z,34.10
2022-10-25T12:19:53.750Z,33.40
2022-10-25T12:20:54.254Z,32.60
2022-10-25T12:21:56.735Z,32.90
2022-10-25T12:22:55.259Z,32.90
2022-10-25T12:23:55.764Z,32.40
2022-10-25T12:24:56.351Z,32.70
2022-10-25T12:25:56.971Z,34.20
2022-10-25T12:26:57.464Z,34.50
2022-10-25T12:27:57.974Z,30.20
2022-10-25T12:28:58.478Z,31.00
2022-10-25T12:29:59.026Z,29.60
2022-10-25T12:30:59.534Z,29.90
2022-10-25T12:32:00.031Z,28.20
2022-10-25T12:33:00.522Z,28.60
2022-10-25T12:34:01.035Z,29.50
2022-10-25T12:35:01.645Z,29.90
2022-10-25T12:36:02.141Z,28.10
2022-10-25T12:37:02.633Z,27.60
2022-10-25T12:38:03.140Z,26.90
2022-10-25T12:39:03.671Z,28.60
2022-10-25T12:40:04.286Z,27.20
2022-10-25T12:41:04.910Z,28.30
2022-10-25T12:42:05.415Z,26.90
2022-10-25T12:43:05.920Z,28.50
2022-10-25T12:44:06.425Z,28.80
2022-10-25T12:45:07.104Z,27.60
2022-10-25T12:46:07.608Z,25.70
2022-10-25T12:47:08.109Z,25.50
2022-10-25T12:48:08.604Z,28.10
2022-10-25T12:49:09.112Z,29.10
2022-10-25T12:50:09.739Z,28.70
2022-10-25T12:51:12.074Z,28.10
2022-10-25T12:52:11.092Z,27.10
2022-10-25T12:53:11.600Z,27.50
2022-10-25T12:54:12.108Z,27.30
2022-10-25T12:55:12.661Z,28.40
2022-10-25T12:56:13.283Z,27.70
2022-10-25T12:57:13.805Z,28.20
2022-10-25T12:58:14.308Z,27.10
2022-10-25T12:59:14.819Z,27.10
2022-10-25T13:00:15.434Z,26.60
2022-10-25T13:01:16.014Z,26.60
2022-10-25T13:02:16.572Z,27.20
2022-10-25T13:03:19.415Z,27.20
2022-10-25T13:04:17.739Z,27.10
2022-10-25T13:05:18.291Z,28.40
2022-10-25T13:06:18.811Z,27.80
2022-10-25T13:08:20.171Z,25.70
2022-10-25T13:09:22.291Z,25.10
2022-10-25T13:10:21.701Z,25.20
2022-10-25T13:11:22.426Z,25.90
2022-10-25T13:12:22.928Z,26.20
2022-10-25T13:13:23.440Z,24.40
2022-10-25T13:14:23.939Z,26.10
2022-10-25T13:15:24.478Z,26.20
2022-10-25T13:16:25.003Z,24.60
2022-10-25T13:17:25.507Z,26.90
2022-10-25T13:18:26.018Z,25.60
2022-10-25T13:19:49.369Z,23.80
2022-10-25T13:20:27.418Z,26.80
2022-10-25T13:21:27.924Z,28.90
2022-10-25T13:22:28.428Z,26.00
2022-10-25T13:23:28.935Z,24.10
2022-10-25T13:24:29.434Z,28.20
2022-10-25T13:25:30.042Z,30.10
2022-10-25T13:26:30.663Z,26.70
2022-10-25T13:27:31.166Z,24.60
2022-10-25T13:28:35.998Z,26.60
2022-10-25T13:29:32.266Z,24.70
2022-10-25T13:30:32.809Z,20.90
2022-10-25T13:31:33.321Z,20.30
2022-10-25T13:32:33.821Z,18.70
2022-10-25T13:33:34.319Z,16.60
2022-10-25T13:34:34.824Z,14.60
2022-10-25T13:35:35.360Z,12.00
2022-10-25T13:36:35.879Z,11.30
2022-10-25T13:37:36.395Z,10.40
2022-10-25T13:38:39.550Z,10.00
2022-10-25T13:39:37.517Z,9.40
2022-10-25T13:40:38.115Z,9.30
2022-10-25T13:41:38.737Z,10.10
2022-10-25T13:42:39.247Z,9.70
2022-10-25T13:43:39.750Z,9.60